sensor_id;sensor_type;location;lat;lon;timestamp;pressure;altitude;pressure_sealevel;temperature;humidity
51928;BME280;37953;52.806;18.270;2024-01-16T00:02:20;98757.44;;;0.32;86.93
51928;BME280;37953;52.806;18.270;2024-01-16T00:04:46;98754.84;;;0.31;85.71
51928;BME280;37953;52.806;18.270;2024-01-16T00:07:12;98759.06;;;0.29;84.39
51928;BME280;37953;52.806;18.270;2024-01-16T00:09:38;98763.31;;;0.28;84.09
51928;BME280;37953;52.806;18.270;2024-01-16T00:12:05;98770.09;;;0.26;84.05
51928;BME280;37953;52.806;18.270;2024-01-16T00:14:35;98776.88;;;0.24;84.55
51928;BME280;37953;52.806;18.270;2024-01-16T00:17:01;98787.91;;;0.23;85.14
51928;BME280;37953;52.806;18.270;2024-01-16T00:19:27;98795.53;;;0.20;85.44
51928;BME280;37953;52.806;18.270;2024-01-16T00:21:53;98799.75;;;0.18;86.20
51928;BME280;37953;52.806;18.270;2024-01-16T00:24:19;98806.56;;;0.17;86.23
51928;BME280;37953;52.806;18.270;2024-01-16T00:26:45;98807.38;;;0.16;86.60
51928;BME280;37953;52.806;18.270;2024-01-16T00:29:12;98817.56;;;0.15;86.74
51928;BME280;37953;52.806;18.270;2024-01-16T00:31:47;98817.56;;;0.15;86.76
51928;BME280;37953;52.806;18.270;2024-01-16T00:34:13;98825.16;;;0.12;86.96
51928;BME280;37953;52.806;18.270;2024-01-16T00:36:39;98831.94;;;0.10;87.17
51928;BME280;37953;52.806;18.270;2024-01-16T00:39:05;98827.66;;;0.07;88.03
51928;BME280;37953;52.806;18.270;2024-01-16T00:41:32;98840.38;;;0.06;88.74
51928;BME280;37953;52.806;18.270;2024-01-16T00:43:58;98844.63;;;0.05;89.03
51928;BME280;37953;52.806;18.270;2024-01-16T00:46:24;98840.38;;;0.06;89.65
51928;BME280;37953;52.806;18.270;2024-01-16T00:48:53;98845.44;;;0.04;90.19
51928;BME280;37953;52.806;18.270;2024-01-16T00:51:19;98855.59;;;0.01;90.43
51928;BME280;37953;52.806;18.270;2024-01-16T00:53:45;98866.66;;;0.00;89.75
51928;BME280;37953;52.806;18.270;2024-01-16T00:56:11;98875.13;;;-0.01;90.45
51928;BME280;37953;52.806;18.270;2024-01-16T00:58:38;98881.09;;;-0.02;90.37
51928;BME280;37953;52.806;18.270;2024-01-16T01:01:04;98888.66;;;-0.05;90.64
51928;BME280;37953;52.806;18.270;2024-01-16T01:03:30;98888.66;;;-0.05;90.46
51928;BME280;37953;52.806;18.270;2024-01-16T01:05:57;98886.97;;;-0.05;90.62
51928;BME280;37953;52.806;18.270;2024-01-16T01:08:29;98898.03;;;-0.06;91.03
51928;BME280;37953;52.806;18.270;2024-01-16T01:10:55;98885.22;;;-0.07;90.91
51928;BME280;37953;52.806;18.270;2024-01-16T01:13:22;98897.13;;;-0.08;89.80
51928;BME280;37953;52.806;18.270;2024-01-16T01:15:48;98904.75;;;-0.09;89.55
51928;BME280;37953;52.806;18.270;2024-01-16T01:18:14;98904.72;;;-0.11;89.36
51928;BME280;37953;52.806;18.270;2024-01-16T01:20:40;98904.72;;;-0.12;89.42
51928;BME280;37953;52.806;18.270;2024-01-16T01:23:06;98912.31;;;-0.14;88.84
51928;BME280;37953;52.806;18.270;2024-01-16T01:25:32;98910.56;;;-0.16;88.79
51928;BME280;37953;52.806;18.270;2024-01-16T01:27:58;98909.72;;;-0.17;89.12
51928;BME280;37953;52.806;18.270;2024-01-16T01:30:25;98919.03;;;-0.19;88.94
51928;BME280;37953;52.806;18.270;2024-01-16T01:32:51;98933.47;;;-0.19;89.04
51928;BME280;37953;52.806;18.270;2024-01-16T01:35:17;98928.34;;;-0.21;89.15
51928;BME280;37953;52.806;18.270;2024-01-16T01:37:45;98935.06;;;-0.25;89.00
51928;BME280;37953;52.806;18.270;2024-01-16T01:40:11;98931.66;;;-0.25;88.76
51928;BME280;37953;52.806;18.270;2024-01-16T01:42:44;98927.34;;;-0.28;88.32
51928;BME280;37953;52.806;18.270;2024-01-16T01:45:11;98933.25;;;-0.30;88.16
51928;BME280;37953;52.806;18.270;2024-01-16T01:47:41;98940.91;;;-0.30;88.12
51928;BME280;37953;52.806;18.270;2024-01-16T01:50:10;98939.16;;;-0.33;87.43
51928;BME280;37953;52.806;18.270;2024-01-16T01:52:40;98960.41;;;-0.32;87.34
51928;BME280;37953;52.806;18.270;2024-01-16T01:55:11;98954.41;;;-0.34;86.82
51928;BME280;37953;52.806;18.270;2024-01-16T01:57:38;98962.00;;;-0.37;86.41
51928;BME280;37953;52.806;18.270;2024-01-16T02:00:05;98972.13;;;-0.41;86.68
51928;BME280;37953;52.806;18.270;2024-01-16T02:02:38;98977.22;;;-0.42;86.08
51928;BME280;37953;52.806;18.270;2024-01-16T02:05:05;98973.66;;;-0.49;85.89
51928;BME280;37953;52.806;18.270;2024-01-16T02:07:33;98982.19;;;-0.47;85.91
51928;BME280;37953;52.806;18.270;2024-01-16T02:10:00;98988.09;;;-0.49;85.41
51928;BME280;37953;52.806;18.270;2024-01-16T02:12:26;98999.91;;;-0.54;84.90
51928;BME280;37953;52.806;18.270;2024-01-16T02:14:52;98997.34;;;-0.54;84.84
51928;BME280;37953;52.806;18.270;2024-01-16T02:17:18;99002.41;;;-0.56;84.98
51928;BME280;37953;52.806;18.270;2024-01-16T02:19:44;99009.19;;;-0.56;84.54
51928;BME280;37953;52.806;18.270;2024-01-16T02:22:24;99013.44;;;-0.57;85.06
51928;BME280;37953;52.806;18.270;2024-01-16T02:24:51;99020.09;;;-0.62;84.93
51928;BME280;37953;52.806;18.270;2024-01-16T02:27:18;99006.47;;;-0.64;85.35
51928;BME280;37953;52.806;18.270;2024-01-16T02:29:43;99012.28;;;-0.70;86.20
51928;BME280;37953;52.806;18.270;2024-01-16T02:32:13;99012.19;;;-0.73;86.14
51928;BME280;37953;52.806;18.270;2024-01-16T02:34:40;99026.69;;;-0.70;86.00
51928;BME280;37953;52.806;18.270;2024-01-16T02:37:06;99031.75;;;-0.73;86.71
51928;BME280;37953;52.806;18.270;2024-01-16T02:39:32;99030.88;;;-0.74;86.95
51928;BME280;37953;52.806;18.270;2024-01-16T02:41:58;99031.75;;;-0.73;87.40
51928;BME280;37953;52.806;18.270;2024-01-16T02:44:23;99031.69;;;-0.75;86.79
51928;BME280;37953;52.806;18.270;2024-01-16T02:46:50;99035.09;;;-0.76;87.51
51928;BME280;37953;52.806;18.270;2024-01-16T02:49:15;99044.38;;;-0.78;87.40
51928;BME280;37953;52.806;18.270;2024-01-16T02:51:44;99043.53;;;-0.77;87.97
51928;BME280;37953;52.806;18.270;2024-01-16T02:54:10;99042.69;;;-0.77;87.71
51928;BME280;37953;52.806;18.270;2024-01-16T02:56:37;99053.69;;;-0.80;87.80
51928;BME280;37953;52.806;18.270;2024-01-16T02:59:03;99062.13;;;-0.83;87.83
51928;BME280;37953;52.806;18.270;2024-01-16T03:01:30;99066.38;;;-0.82;87.92
51928;BME280;37953;52.806;18.270;2024-01-16T03:03:56;99063.78;;;-0.83;87.96
51928;BME280;37953;52.806;18.270;2024-01-16T03:06:23;99064.63;;;-0.84;88.07
51928;BME280;37953;52.806;18.270;2024-01-16T03:08:50;99068.88;;;-0.85;88.64
51928;BME280;37953;52.806;18.270;2024-01-16T03:11:17;99062.88;;;-0.85;88.01
51928;BME280;37953;52.806;18.270;2024-01-16T03:13:43;99056.03;;;-0.88;88.78
51928;BME280;37953;52.806;18.270;2024-01-16T03:16:12;99052.56;;;-0.90;88.39
51928;BME280;37953;52.806;18.270;2024-01-16T03:18:38;99050.84;;;-0.91;88.64
51928;BME280;37953;52.806;18.270;2024-01-16T03:21:07;99052.50;;;-0.93;89.79
51928;BME280;37953;52.806;18.270;2024-01-16T03:23:46;99061.81;;;-0.93;89.79
51928;BME280;37953;52.806;18.270;2024-01-16T03:26:16;99066.00;;;-0.97;90.21
51928;BME280;37953;52.806;18.270;2024-01-16T03:28:42;99070.25;;;-0.96;89.47
51928;BME280;37953;52.806;18.270;2024-01-16T03:31:08;99067.66;;;-0.97;90.35
51928;BME280;37953;52.806;18.270;2024-01-16T03:33:34;99071.09;;;-0.97;90.56
51928;BME280;37953;52.806;18.270;2024-01-16T03:36:01;99071.88;;;-0.99;90.21
51928;BME280;37953;52.806;18.270;2024-01-16T03:38:28;99077.78;;;-1.00;90.99
51928;BME280;37953;52.806;18.270;2024-01-16T03:40:54;99084.56;;;-1.01;91.36
51928;BME280;37953;52.806;18.270;2024-01-16T03:43:20;99088.78;;;-1.03;91.40
51928;BME280;37953;52.806;18.270;2024-01-16T03:45:46;99094.66;;;-1.04;91.41
51928;BME280;37953;52.806;18.270;2024-01-16T03:48:12;99092.97;;;-1.05;91.82
51928;BME280;37953;52.806;18.270;2024-01-16T03:50:38;99102.31;;;-1.04;91.88
51928;BME280;37953;52.806;18.270;2024-01-16T03:53:09;99100.66;;;-1.04;91.99
51928;BME280;37953;52.806;18.270;2024-01-16T03:55:35;99100.59;;;-1.05;92.30
51928;BME280;37953;52.806;18.270;2024-01-16T03:58:01;99108.25;;;-1.05;91.85
51928;BME280;37953;52.806;18.270;2024-01-16T04:00:27;99106.56;;;-1.05;92.28
51928;BME280;37953;52.806;18.270;2024-01-16T04:02:53;99105.69;;;-1.05;92.37
51928;BME280;37953;52.806;18.270;2024-01-16T04:05:19;99107.41;;;-1.04;92.40
51928;BME280;37953;52.806;18.270;2024-01-16T04:07:45;99111.66;;;-1.05;92.75
51928;BME280;37953;52.806;18.270;2024-01-16T04:10:11;99112.50;;;-1.06;93.08
51928;BME280;37953;52.806;18.270;2024-01-16T04:12:37;99111.59;;;-1.06;92.60
51928;BME280;37953;52.806;18.270;2024-01-16T04:15:04;99110.69;;;-1.08;92.98
51928;BME280;37953;52.806;18.270;2024-01-16T04:17:30;99117.53;;;-1.07;93.31
51928;BME280;37953;52.806;18.270;2024-01-16T04:19:56;99111.59;;;-1.08;92.89
51928;BME280;37953;52.806;18.270;2024-01-16T04:22:22;99109.84;;;-1.09;93.35
51928;BME280;37953;52.806;18.270;2024-01-16T04:24:48;99112.38;;;-1.09;92.70
51928;BME280;37953;52.806;18.270;2024-01-16T04:27:14;99120.03;;;-1.09;93.15
51928;BME280;37953;52.806;18.270;2024-01-16T04:29:40;99122.59;;;-1.09;92.87
51928;BME280;37953;52.806;18.270;2024-01-16T04:32:06;99125.06;;;-1.12;92.71
51928;BME280;37953;52.806;18.270;2024-01-16T04:34:32;99137.81;;;-1.10;93.34
51928;BME280;37953;52.806;18.270;2024-01-16T04:36:58;99138.72;;;-1.10;93.30
51928;BME280;37953;52.806;18.270;2024-01-16T04:39:24;99131.81;;;-1.14;93.58
51928;BME280;37953;52.806;18.270;2024-01-16T04:41:50;99137.88;;;-1.09;93.59
51928;BME280;37953;52.806;18.270;2024-01-16T04:44:16;99147.22;;;-1.09;93.78
51928;BME280;37953;52.806;18.270;2024-01-16T04:46:42;99151.41;;;-1.11;93.25
51928;BME280;37953;52.806;18.270;2024-01-16T04:49:08;99144.53;;;-1.14;92.68
51928;BME280;37953;52.806;18.270;2024-01-16T04:51:34;99150.44;;;-1.15;93.30
51928;BME280;37953;52.806;18.270;2024-01-16T04:54:00;99148.69;;;-1.17;93.08
51928;BME280;37953;52.806;18.270;2024-01-16T04:56:26;99150.31;;;-1.19;93.67
51928;BME280;37953;52.806;18.270;2024-01-16T04:58:52;99157.06;;;-1.21;94.26
51928;BME280;37953;52.806;18.270;2024-01-16T05:01:18;99151.97;;;-1.21;94.28
51928;BME280;37953;52.806;18.270;2024-01-16T05:03:44;99162.88;;;-1.26;93.59
51928;BME280;37953;52.806;18.270;2024-01-16T05:06:14;99172.16;;;-1.28;93.80
51928;BME280;37953;52.806;18.270;2024-01-16T05:08:41;99182.34;;;-1.28;94.14
51928;BME280;37953;52.806;18.270;2024-01-16T05:11:07;99178.81;;;-1.33;93.75
51928;BME280;37953;52.806;18.270;2024-01-16T05:13:34;99184.72;;;-1.34;93.83
51928;BME280;37953;52.806;18.270;2024-01-16T05:16:00;99192.28;;;-1.37;94.16
51928;BME280;37953;52.806;18.270;2024-01-16T05:18:26;99193.97;;;-1.37;94.28
51928;BME280;37953;52.806;18.270;2024-01-16T05:20:52;99196.41;;;-1.40;94.20
51928;BME280;37953;52.806;18.270;2024-01-16T05:23:18;99212.56;;;-1.40;95.20
51928;BME280;37953;52.806;18.270;2024-01-16T05:25:44;99207.38;;;-1.43;94.83
51928;BME280;37953;52.806;18.270;2024-01-16T05:28:10;99216.66;;;-1.45;95.86
51928;BME280;37953;52.806;18.270;2024-01-16T05:30:36;99206.41;;;-1.47;95.42
51928;BME280;37953;52.806;18.270;2024-01-16T05:33:02;99214.84;;;-1.49;96.09
51928;BME280;37953;52.806;18.270;2024-01-16T05:35:41;99213.13;;;-1.49;96.78
51928;BME280;37953;52.806;18.270;2024-01-16T05:38:07;99215.66;;;-1.50;96.28
51928;BME280;37953;52.806;18.270;2024-01-16T05:40:33;99232.56;;;-1.52;96.64
51928;BME280;37953;52.806;18.270;2024-01-16T05:42:59;99236.75;;;-1.54;96.89
51928;BME280;37953;52.806;18.270;2024-01-16T05:45:25;99242.66;;;-1.55;96.48
51928;BME280;37953;52.806;18.270;2024-01-16T05:47:54;99236.69;;;-1.56;96.38
51928;BME280;37953;52.806;18.270;2024-01-16T05:50:26;99234.03;;;-1.60;96.34
51928;BME280;37953;52.806;18.270;2024-01-16T05:52:52;99249.28;;;-1.60;96.99
51928;BME280;37953;52.806;18.270;2024-01-16T05:55:19;99244.94;;;-1.63;96.53
51928;BME280;37953;52.806;18.270;2024-01-16T05:57:47;99255.91;;;-1.66;96.63
51928;BME280;37953;52.806;18.270;2024-01-16T06:00:13;99266.97;;;-1.65;96.43
51928;BME280;37953;52.806;18.270;2024-01-16T06:02:39;99272.06;;;-1.65;96.78
51928;BME280;37953;52.806;18.270;2024-01-16T06:05:06;99271.16;;;-1.67;97.21
51928;BME280;37953;52.806;18.270;2024-01-16T06:07:33;99280.44;;;-1.68;97.15
51928;BME280;37953;52.806;18.270;2024-01-16T06:09:58;99277.00;;;-1.70;97.34
51928;BME280;37953;52.806;18.270;2024-01-16T06:12:24;99284.63;;;-1.70;97.14
51928;BME280;37953;52.806;18.270;2024-01-16T06:14:53;99294.78;;;-1.71;96.64
51928;BME280;37953;52.806;18.270;2024-01-16T06:17:20;99305.78;;;-1.72;97.22
51928;BME280;37953;52.806;18.270;2024-01-16T06:19:46;99304.84;;;-1.74;97.09
51928;BME280;37953;52.806;18.270;2024-01-16T06:22:12;99301.31;;;-1.78;97.46
51928;BME280;37953;52.806;18.270;2024-01-16T06:24:38;99303.00;;;-1.78;97.53
51928;BME280;37953;52.806;18.270;2024-01-16T06:27:05;99304.69;;;-1.79;97.07
51928;BME280;37953;52.806;18.270;2024-01-16T06:29:34;99308.88;;;-1.81;97.74
51928;BME280;37953;52.806;18.270;2024-01-16T06:32:01;99312.25;;;-1.82;97.61
51928;BME280;37953;52.806;18.270;2024-01-16T06:34:27;99321.50;;;-1.84;98.20
51928;BME280;37953;52.806;18.270;2024-01-16T06:36:57;99318.09;;;-1.85;97.97
51928;BME280;37953;52.806;18.270;2024-01-16T06:39:23;99323.16;;;-1.86;97.93
51928;BME280;37953;52.806;18.270;2024-01-16T06:41:49;99329.03;;;-1.87;97.91
51928;BME280;37953;52.806;18.270;2024-01-16T06:44:15;99338.34;;;-1.88;98.54
51928;BME280;37953;52.806;18.270;2024-01-16T06:46:41;99340.91;;;-1.88;98.05
51928;BME280;37953;52.806;18.270;2024-01-16T06:49:07;99339.97;;;-1.90;98.24
51928;BME280;37953;52.806;18.270;2024-01-16T06:51:33;99348.38;;;-1.92;97.89
51928;BME280;37953;52.806;18.270;2024-01-16T06:53:59;99355.13;;;-1.93;98.57
51928;BME280;37953;52.806;18.270;2024-01-16T06:56:25;99361.91;;;-1.93;98.34
51928;BME280;37953;52.806;18.270;2024-01-16T06:58:52;99369.53;;;-1.93;98.02
51928;BME280;37953;52.806;18.270;2024-01-16T07:01:18;99372.75;;;-1.99;98.02
51928;BME280;37953;52.806;18.270;2024-01-16T07:03:44;99371.94;;;-1.98;98.74
51928;BME280;37953;52.806;18.270;2024-01-16T07:06:10;99382.06;;;-1.99;99.51
51928;BME280;37953;52.806;18.270;2024-01-16T07:08:36;99390.50;;;-2.00;98.69
51928;BME280;37953;52.806;18.270;2024-01-16T07:11:02;99401.47;;;-2.01;99.77
51928;BME280;37953;52.806;18.270;2024-01-16T07:13:28;99392.19;;;-2.01;99.60
51928;BME280;37953;52.806;18.270;2024-01-16T07:15:54;99397.28;;;-2.01;100.00
51928;BME280;37953;52.806;18.270;2024-01-16T07:18:20;99393.84;;;-2.01;100.00
51928;BME280;37953;52.806;18.270;2024-01-16T07:20:46;99398.09;;;-2.02;100.00
51928;BME280;37953;52.806;18.270;2024-01-16T07:23:12;99396.41;;;-2.01;100.00
51928;BME280;37953;52.806;18.270;2024-01-16T07:25:39;99399.84;;;-2.01;100.00
51928;BME280;37953;52.806;18.270;2024-01-16T07:28:05;99393.91;;;-2.00;100.00
51928;BME280;37953;52.806;18.270;2024-01-16T07:30:37;99401.63;;;-1.98;100.00
51928;BME280;37953;52.806;18.270;2024-01-16T07:33:03;99403.41;;;-1.96;100.00
51928;BME280;37953;52.806;18.270;2024-01-16T07:35:30;99409.34;;;-1.95;100.00
51928;BME280;37953;52.806;18.270;2024-01-16T07:37:56;99416.97;;;-1.95;100.00
51928;BME280;37953;52.806;18.270;2024-01-16T07:40:22;99412.72;;;-1.96;100.00
51928;BME280;37953;52.806;18.270;2024-01-16T07:42:49;99409.31;;;-1.97;100.00
51928;BME280;37953;52.806;18.270;2024-01-16T07:45:15;99414.34;;;-1.98;100.00
51928;BME280;37953;52.806;18.270;2024-01-16T07:47:41;99417.81;;;-1.96;100.00
51928;BME280;37953;52.806;18.270;2024-01-16T07:50:08;99420.28;;;-1.98;100.00
51928;BME280;37953;52.806;18.270;2024-01-16T07:52:34;99429.59;;;-1.98;100.00
51928;BME280;37953;52.806;18.270;2024-01-16T07:55:00;99436.38;;;-1.99;100.00
51928;BME280;37953;52.806;18.270;2024-01-16T07:57:26;99439.78;;;-1.98;100.00
51928;BME280;37953;52.806;18.270;2024-01-16T07:59:52;99444.88;;;-1.98;100.00
51928;BME280;37953;52.806;18.270;2024-01-16T08:02:18;99460.16;;;-1.98;100.00
51928;BME280;37953;52.806;18.270;2024-01-16T08:04:44;99458.41;;;-1.99;100.00
51928;BME280;37953;52.806;18.270;2024-01-16T08:07:10;99466.09;;;-1.98;100.00
51928;BME280;37953;52.806;18.270;2024-01-16T08:09:36;99475.41;;;-1.98;100.00
51928;BME280;37953;52.806;18.270;2024-01-16T08:12:02;99483.06;;;-1.98;100.00
51928;BME280;37953;52.806;18.270;2024-01-16T08:14:28;99482.22;;;-1.97;100.00
51928;BME280;37953;52.806;18.270;2024-01-16T08:16:54;99491.63;;;-1.96;100.00
51928;BME280;37953;52.806;18.270;2024-01-16T08:19:21;99498.41;;;-1.95;100.00
51928;BME280;37953;52.806;18.270;2024-01-16T08:21:46;99501.03;;;-1.94;100.00
51928;BME280;37953;52.806;18.270;2024-01-16T08:24:13;99513.00;;;-1.91;100.00
51928;BME280;37953;52.806;18.270;2024-01-16T08:26:39;99512.19;;;-1.90;100.00
51928;BME280;37953;52.806;18.270;2024-01-16T08:29:05;99517.47;;;-1.86;100.00
51928;BME280;37953;52.806;18.270;2024-01-16T08:31:31;99532.03;;;-1.81;100.00
51928;BME280;37953;52.806;18.270;2024-01-16T08:33:57;99529.53;;;-1.80;100.00
51928;BME280;37953;52.806;18.270;2024-01-16T08:36:23;99538.91;;;-1.79;100.00
51928;BME280;37953;52.806;18.270;2024-01-16T08:38:49;99534.75;;;-1.77;100.00
51928;BME280;37953;52.806;18.270;2024-01-16T08:41:15;99540.63;;;-1.78;100.00
51928;BME280;37953;52.806;18.270;2024-01-16T08:43:41;99539.00;;;-1.76;100.00
51928;BME280;37953;52.806;18.270;2024-01-16T08:46:07;99546.66;;;-1.76;100.00
51928;BME280;37953;52.806;18.270;2024-01-16T08:48:36;99548.41;;;-1.75;100.00
51928;BME280;37953;52.806;18.270;2024-01-16T08:51:07;99545.84;;;-1.75;100.00
51928;BME280;37953;52.806;18.270;2024-01-16T08:53:33;99552.66;;;-1.74;100.00
51928;BME280;37953;52.806;18.270;2024-01-16T08:56:00;99557.81;;;-1.72;100.00
51928;BME280;37953;52.806;18.270;2024-01-16T08:58:26;99559.50;;;-1.73;100.00
51928;BME280;37953;52.806;18.270;2024-01-16T09:00:52;99555.34;;;-1.71;100.00
51928;BME280;37953;52.806;18.270;2024-01-16T09:03:18;99554.53;;;-1.70;100.00
51928;BME280;37953;52.806;18.270;2024-01-16T09:05:44;99560.53;;;-1.68;100.00
51928;BME280;37953;52.806;18.270;2024-01-16T09:08:11;99570.78;;;-1.66;100.00
51928;BME280;37953;52.806;18.270;2024-01-16T09:10:40;99567.44;;;-1.65;100.00
51928;BME280;37953;52.806;18.270;2024-01-16T09:13:06;99565.75;;;-1.65;100.00
51928;BME280;37953;52.806;18.270;2024-01-16T09:15:32;99573.50;;;-1.61;100.00
51928;BME280;37953;52.806;18.270;2024-01-16T09:17:59;99572.56;;;-1.64;100.00
51928;BME280;37953;52.806;18.270;2024-01-16T09:20:24;99572.63;;;-1.62;100.00
51928;BME280;37953;52.806;18.270;2024-01-16T09:22:51;99568.41;;;-1.61;100.00
51928;BME280;37953;52.806;18.270;2024-01-16T09:25:17;99565.94;;;-1.60;100.00
51928;BME280;37953;52.806;18.270;2024-01-16T09:27:43;99571.13;;;-1.57;100.00
51928;BME280;37953;52.806;18.270;2024-01-16T09:30:09;99567.78;;;-1.56;100.00
51928;BME280;37953;52.806;18.270;2024-01-16T09:32:35;99571.31;;;-1.52;100.00
51928;BME280;37953;52.806;18.270;2024-01-16T09:35:02;99577.34;;;-1.50;100.00
51928;BME280;37953;52.806;18.270;2024-01-16T09:37:30;99571.47;;;-1.48;100.00
51928;BME280;37953;52.806;18.270;2024-01-16T09:39:56;99571.50;;;-1.46;100.00
51928;BME280;37953;52.806;18.270;2024-01-16T09:42:23;99576.66;;;-1.45;100.00
51928;BME280;37953;52.806;18.270;2024-01-16T09:44:51;99569.94;;;-1.42;100.00
51928;BME280;37953;52.806;18.270;2024-01-16T09:47:18;99576.81;;;-1.40;100.00
51928;BME280;37953;52.806;18.270;2024-01-16T09:49:50;99579.50;;;-1.37;100.00
51928;BME280;37953;52.806;18.270;2024-01-16T09:52:16;99575.31;;;-1.35;100.00
51928;BME280;37953;52.806;18.270;2024-01-16T09:54:42;99578.78;;;-1.33;100.00
51928;BME280;37953;52.806;18.270;2024-01-16T09:57:11;99579.72;;;-1.31;100.00
51928;BME280;37953;52.806;18.270;2024-01-16T09:59:44;99589.22;;;-1.27;100.00
51928;BME280;37953;52.806;18.270;2024-01-16T10:02:11;99585.84;;;-1.26;100.00
51928;BME280;37953;52.806;18.270;2024-01-16T10:04:42;99596.94;;;-1.24;100.00
51928;BME280;37953;52.806;18.270;2024-01-16T10:07:10;99598.81;;;-1.19;100.00
51928;BME280;37953;52.806;18.270;2024-01-16T10:09:48;99608.28;;;-1.15;100.00
51928;BME280;37953;52.806;18.270;2024-01-16T10:12:14;99604.13;;;-1.13;99.74
51928;BME280;37953;52.806;18.270;2024-01-16T10:14:41;99605.97;;;-1.09;98.87
51928;BME280;37953;52.806;18.270;2024-01-16T10:17:09;99615.41;;;-1.07;98.23
51928;BME280;37953;52.806;18.270;2024-01-16T10:19:50;99618.94;;;-1.03;97.43
51928;BME280;37953;52.806;18.270;2024-01-16T10:22:23;99615.56;;;-1.02;98.09
51928;BME280;37953;52.806;18.270;2024-01-16T10:25:04;99621.63;;;-0.98;97.75
51928;BME280;37953;52.806;18.270;2024-01-16T10:28:02;99627.66;;;-0.96;97.32
51928;BME280;37953;52.806;18.270;2024-01-16T10:30:29;99624.25;;;-0.97;97.72
51928;BME280;37953;52.806;18.270;2024-01-16T10:32:55;99622.78;;;-0.90;98.23
51928;BME280;37953;52.806;18.270;2024-01-16T10:35:26;99616.75;;;-0.92;97.99
51928;BME280;37953;52.806;18.270;2024-01-16T10:37:53;99615.19;;;-0.89;98.22
51928;BME280;37953;52.806;18.270;2024-01-16T10:40:23;99621.47;;;-0.79;97.71
51928;BME280;37953;52.806;18.270;2024-01-16T10:42:59;99623.22;;;-0.76;96.72
51928;BME280;37953;52.806;18.270;2024-01-16T10:45:26;99632.69;;;-0.74;97.33
51928;BME280;37953;52.806;18.270;2024-01-16T10:50:29;99637.94;;;-0.69;93.68
51928;BME280;37953;52.806;18.270;2024-01-16T10:52:55;99639.66;;;-0.68;90.47
51928;BME280;37953;52.806;18.270;2024-01-16T10:55:23;99637.19;;;-0.67;88.69
51928;BME280;37953;52.806;18.270;2024-01-16T10:57:50;99641.50;;;-0.64;87.71
51928;BME280;37953;52.806;18.270;2024-01-16T11:00:20;99635.47;;;-0.68;87.15
51928;BME280;37953;52.806;18.270;2024-01-16T11:05:33;99638.97;;;-0.64;86.48
51928;BME280;37953;52.806;18.270;2024-01-16T11:08:00;99642.34;;;-0.65;85.07
51928;BME280;37953;52.806;18.270;2024-01-16T11:10:32;99645.81;;;-0.63;85.32
51928;BME280;37953;52.806;18.270;2024-01-16T11:13:02;99641.56;;;-0.63;85.67
51928;BME280;37953;52.806;18.270;2024-01-16T11:15:30;99650.09;;;-0.62;85.58
51928;BME280;37953;52.806;18.270;2024-01-16T11:17:57;99645.00;;;-0.62;85.52
51928;BME280;37953;52.806;18.270;2024-01-16T11:20:25;99644.13;;;-0.63;84.53
51928;BME280;37953;52.806;18.270;2024-01-16T11:22:52;99652.56;;;-0.64;84.68
51928;BME280;37953;52.806;18.270;2024-01-16T11:25:39;99645.84;;;-0.62;84.74
51928;BME280;37953;52.806;18.270;2024-01-16T11:28:09;99650.22;;;-0.59;85.70
51928;BME280;37953;52.806;18.270;2024-01-16T11:30:36;99652.78;;;-0.57;85.83
51928;BME280;37953;52.806;18.270;2024-01-16T11:33:03;99654.53;;;-0.56;85.37
51928;BME280;37953;52.806;18.270;2024-01-16T11:35:37;99657.16;;;-0.55;85.99
51928;BME280;37953;52.806;18.270;2024-01-16T11:38:07;99652.00;;;-0.56;85.78
51928;BME280;37953;52.806;18.270;2024-01-16T11:40:34;99657.09;;;-0.56;85.88
51928;BME280;37953;52.806;18.270;2024-01-16T11:45:54;99649.38;;;-0.58;87.59
51928;BME280;37953;52.806;18.270;2024-01-16T11:48:20;99656.31;;;-0.54;89.37
51928;BME280;37953;52.806;18.270;2024-01-16T11:50:47;99655.53;;;-0.53;90.78
51928;BME280;37953;52.806;18.270;2024-01-16T11:53:32;99645.13;;;-0.57;91.50
51928;BME280;37953;52.806;18.270;2024-01-16T12:01:32;99640.97;;;-0.55;92.22
51928;BME280;37953;52.806;18.270;2024-01-16T12:04:07;99637.59;;;-0.54;92.30
51928;BME280;37953;52.806;18.270;2024-01-16T12:06:35;99635.91;;;-0.54;91.91
51928;BME280;37953;52.806;18.270;2024-01-16T12:09:28;99646.25;;;-0.51;91.86
51928;BME280;37953;52.806;18.270;2024-01-16T12:11:58;99638.53;;;-0.52;91.68
51928;BME280;37953;52.806;18.270;2024-01-16T12:14:25;99644.50;;;-0.52;91.44
51928;BME280;37953;52.806;18.270;2024-01-16T12:16:50;99655.56;;;-0.51;91.29
51928;BME280;37953;52.806;18.270;2024-01-16T12:19:17;99656.44;;;-0.51;90.77
51928;BME280;37953;52.806;18.270;2024-01-16T12:21:45;99659.84;;;-0.50;91.06
51928;BME280;37953;52.806;18.270;2024-01-16T12:24:12;99666.75;;;-0.48;91.11
51928;BME280;37953;52.806;18.270;2024-01-16T12:26:39;99659.00;;;-0.51;90.04
51928;BME280;37953;52.806;18.270;2024-01-16T12:29:11;99667.66;;;-0.46;89.19
51928;BME280;37953;52.806;18.270;2024-01-16T12:31:37;99671.94;;;-0.45;88.39
51928;BME280;37953;52.806;18.270;2024-01-16T12:34:09;99677.97;;;-0.43;87.74
51928;BME280;37953;52.806;18.270;2024-01-16T12:36:36;99680.47;;;-0.44;86.28
51928;BME280;37953;52.806;18.270;2024-01-16T12:39:03;99685.59;;;-0.44;84.56
51928;BME280;37953;52.806;18.270;2024-01-16T12:41:35;99681.34;;;-0.44;83.46
51928;BME280;37953;52.806;18.270;2024-01-16T12:44:03;99694.09;;;-0.44;82.90
51928;BME280;37953;52.806;18.270;2024-01-16T12:46:29;99694.03;;;-0.45;82.34
51928;BME280;37953;52.806;18.270;2024-01-16T12:49:01;99690.56;;;-0.47;81.73
51928;BME280;37953;52.806;18.270;2024-01-16T12:51:27;99701.63;;;-0.47;80.58
51928;BME280;37953;52.806;18.270;2024-01-16T12:53:53;99693.94;;;-0.48;80.87
51928;BME280;37953;52.806;18.270;2024-01-16T12:56:19;99699.00;;;-0.50;81.53
51928;BME280;37953;52.806;18.270;2024-01-16T12:58:46;99700.72;;;-0.49;81.76
51928;BME280;37953;52.806;18.270;2024-01-16T13:03:49;99699.97;;;-0.46;81.33
51928;BME280;37953;52.806;18.270;2024-01-16T13:06:20;99708.53;;;-0.44;82.49